sensor_id;sensor_type;location;lat;lon;timestamp;temperature;humidity
60313;DHT22;46158;52.850;6.970;2023-05-07T00:01:38;18.10;73.40
60313;DHT22;46158;52.850;6.970;2023-05-07T00:04:03;18.10;73.40
60313;DHT22;46158;52.850;6.970;2023-05-07T00:06:29;18.10;73.40
60313;DHT22;46158;52.850;6.970;2023-05-07T00:08:56;18.10;73.40
60313;DHT22;46158;52.850;6.970;2023-05-07T00:11:23;18.10;73.40
60313;DHT22;46158;52.850;6.970;2023-05-07T00:13:48;18.10;73.40
60313;DHT22;46158;52.850;6.970;2023-05-07T00:16:14;18.00;73.30
60313;DHT22;46158;52.850;6.970;2023-05-07T00:18:40;18.10;73.40
60313;DHT22;46158;52.850;6.970;2023-05-07T00:21:05;18.00;73.40
60313;DHT22;46158;52.850;6.970;2023-05-07T00:23:31;18.00;73.30
60313;DHT22;46158;52.850;6.970;2023-05-07T00:25:57;18.00;73.30
60313;DHT22;46158;52.850;6.970;2023-05-07T00:28:22;18.00;73.30
60313;DHT22;46158;52.850;6.970;2023-05-07T00:30:48;18.00;73.40
60313;DHT22;46158;52.850;6.970;2023-05-07T00:33:14;18.00;73.30
60313;DHT22;46158;52.850;6.970;2023-05-07T00:35:39;18.00;73.30
60313;DHT22;46158;52.850;6.970;2023-05-07T00:38:05;18.00;73.30
60313;DHT22;46158;52.850;6.970;2023-05-07T00:40:31;18.00;73.30
60313;DHT22;46158;52.850;6.970;2023-05-07T00:42:56;18.00;73.30
60313;DHT22;46158;52.850;6.970;2023-05-07T00:45:26;18.00;73.40
60313;DHT22;46158;52.850;6.970;2023-05-07T00:47:54;18.00;73.30
60313;DHT22;46158;52.850;6.970;2023-05-07T00:50:20;17.90;73.30
60313;DHT22;46158;52.850;6.970;2023-05-07T00:52:46;17.90;73.20
60313;DHT22;46158;52.850;6.970;2023-05-07T00:55:12;17.90;73.20
60313;DHT22;46158;52.850;6.970;2023-05-07T00:57:40;17.90;73.30
60313;DHT22;46158;52.850;6.970;2023-05-07T01:00:08;17.90;73.30
60313;DHT22;46158;52.850;6.970;2023-05-07T01:02:41;17.90;73.20
60313;DHT22;46158;52.850;6.970;2023-05-07T01:05:11;17.90;73.20
60313;DHT22;46158;52.850;6.970;2023-05-07T01:07:40;17.90;73.20
60313;DHT22;46158;52.850;6.970;2023-05-07T01:10:08;17.90;73.20
60313;DHT22;46158;52.850;6.970;2023-05-07T01:12:36;17.90;73.20
60313;DHT22;46158;52.850;6.970;2023-05-07T01:15:03;17.90;73.20
60313;DHT22;46158;52.850;6.970;2023-05-07T01:17:29;17.90;73.20
60313;DHT22;46158;52.850;6.970;2023-05-07T01:19:55;17.90;73.20
60313;DHT22;46158;52.850;6.970;2023-05-07T01:22:33;17.80;73.20
60313;DHT22;46158;52.850;6.970;2023-05-07T01:25:00;17.80;73.10
60313;DHT22;46158;52.850;6.970;2023-05-07T01:27:27;17.80;73.20
60313;DHT22;46158;52.850;6.970;2023-05-07T01:29:53;17.80;73.20
60313;DHT22;46158;52.850;6.970;2023-05-07T01:32:27;17.80;73.20
60313;DHT22;46158;52.850;6.970;2023-05-07T01:34:54;17.80;73.20
60313;DHT22;46158;52.850;6.970;2023-05-07T01:37:21;17.80;73.20
60313;DHT22;46158;52.850;6.970;2023-05-07T01:39:47;17.80;73.20
60313;DHT22;46158;52.850;6.970;2023-05-07T01:42:13;17.70;73.10
60313;DHT22;46158;52.850;6.970;2023-05-07T01:44:40;17.70;73.10
60313;DHT22;46158;52.850;6.970;2023-05-07T01:47:06;17.70;73.10
60313;DHT22;46158;52.850;6.970;2023-05-07T01:49:32;17.70;73.20
60313;DHT22;46158;52.850;6.970;2023-05-07T01:51:58;17.70;73.10
60313;DHT22;46158;52.850;6.970;2023-05-07T01:54:27;17.70;73.10
60313;DHT22;46158;52.850;6.970;2023-05-07T01:56:55;17.70;73.10
60313;DHT22;46158;52.850;6.970;2023-05-07T01:59:21;17.70;73.20
60313;DHT22;46158;52.850;6.970;2023-05-07T02:01:46;17.70;73.10
60313;DHT22;46158;52.850;6.970;2023-05-07T02:04:13;17.70;73.10
60313;DHT22;46158;52.850;6.970;2023-05-07T02:06:38;17.70;73.10
60313;DHT22;46158;52.850;6.970;2023-05-07T02:09:04;17.70;73.10
60313;DHT22;46158;52.850;6.970;2023-05-07T02:11:30;17.60;73.10
60313;DHT22;46158;52.850;6.970;2023-05-07T02:13:56;17.70;73.10
60313;DHT22;46158;52.850;6.970;2023-05-07T02:16:22;17.60;73.10
60313;DHT22;46158;52.850;6.970;2023-05-07T02:18:48;17.60;73.00
60313;DHT22;46158;52.850;6.970;2023-05-07T02:21:14;17.60;73.10
60313;DHT22;46158;52.850;6.970;2023-05-07T02:23:40;17.60;73.10
60313;DHT22;46158;52.850;6.970;2023-05-07T02:26:05;17.60;73.10
60313;DHT22;46158;52.850;6.970;2023-05-07T02:28:31;17.60;73.10
60313;DHT22;46158;52.850;6.970;2023-05-07T02:30:57;17.60;73.10
60313;DHT22;46158;52.850;6.970;2023-05-07T02:33:25;17.60;73.10
60313;DHT22;46158;52.850;6.970;2023-05-07T02:35:50;17.60;73.10
60313;DHT22;46158;52.850;6.970;2023-05-07T02:38:17;17.60;73.10
60313;DHT22;46158;52.850;6.970;2023-05-07T02:40:43;17.60;73.10
60313;DHT22;46158;52.850;6.970;2023-05-07T02:43:09;17.60;73.00
60313;DHT22;46158;52.850;6.970;2023-05-07T02:45:35;17.50;73.00
60313;DHT22;46158;52.850;6.970;2023-05-07T02:48:03;17.50;73.00
60313;DHT22;46158;52.850;6.970;2023-05-07T02:50:28;17.50;73.00
60313;DHT22;46158;52.850;6.970;2023-05-07T02:52:55;17.50;73.00
60313;DHT22;46158;52.850;6.970;2023-05-07T02:55:21;17.50;73.00
60313;DHT22;46158;52.850;6.970;2023-05-07T02:57:46;17.50;73.00
60313;DHT22;46158;52.850;6.970;2023-05-07T03:00:17;17.50;72.90
60313;DHT22;46158;52.850;6.970;2023-05-07T03:02:44;17.50;73.00
60313;DHT22;46158;52.850;6.970;2023-05-07T03:05:10;17.50;73.00
60313;DHT22;46158;52.850;6.970;2023-05-07T03:07:36;17.40;72.90
60313;DHT22;46158;52.850;6.970;2023-05-07T03:10:03;17.50;73.00
60313;DHT22;46158;52.850;6.970;2023-05-07T03:12:29;17.50;73.00
60313;DHT22;46158;52.850;6.970;2023-05-07T03:14:55;17.40;73.00
60313;DHT22;46158;52.850;6.970;2023-05-07T03:17:21;17.40;72.90
60313;DHT22;46158;52.850;6.970;2023-05-07T03:19:47;17.40;73.00
60313;DHT22;46158;52.850;6.970;2023-05-07T03:22:13;17.40;73.00
60313;DHT22;46158;52.850;6.970;2023-05-07T03:24:38;17.40;72.90
60313;DHT22;46158;52.850;6.970;2023-05-07T03:27:04;17.40;72.90
60313;DHT22;46158;52.850;6.970;2023-05-07T03:29:30;17.40;73.00
60313;DHT22;46158;52.850;6.970;2023-05-07T03:31:55;17.40;72.90
60313;DHT22;46158;52.850;6.970;2023-05-07T03:34:21;17.40;73.00
60313;DHT22;46158;52.850;6.970;2023-05-07T03:36:51;17.40;72.90
60313;DHT22;46158;52.850;6.970;2023-05-07T03:39:16;17.30;72.90
60313;DHT22;46158;52.850;6.970;2023-05-07T03:41:42;17.40;72.90
60313;DHT22;46158;52.850;6.970;2023-05-07T03:44:08;17.40;73.00
60313;DHT22;46158;52.850;6.970;2023-05-07T03:46:34;17.30;72.90
60313;DHT22;46158;52.850;6.970;2023-05-07T03:49:00;17.30;72.90
60313;DHT22;46158;52.850;6.970;2023-05-07T03:51:26;17.30;72.90
60313;DHT22;46158;52.850;6.970;2023-05-07T03:53:52;17.30;73.00
60313;DHT22;46158;52.850;6.970;2023-05-07T03:56:22;17.30;72.90
60313;DHT22;46158;52.850;6.970;2023-05-07T03:58:48;17.30;72.90
60313;DHT22;46158;52.850;6.970;2023-05-07T04:01:14;17.30;72.90
60313;DHT22;46158;52.850;6.970;2023-05-07T04:03:40;17.20;72.80
60313;DHT22;46158;52.850;6.970;2023-05-07T04:06:06;17.30;72.90
60313;DHT22;46158;52.850;6.970;2023-05-07T04:08:31;17.20;72.80
60313;DHT22;46158;52.850;6.970;2023-05-07T04:10:58;17.20;72.90
60313;DHT22;46158;52.850;6.970;2023-05-07T04:13:24;17.20;72.80
60313;DHT22;46158;52.850;6.970;2023-05-07T04:15:51;17.20;72.80
60313;DHT22;46158;52.850;6.970;2023-05-07T04:18:16;17.20;72.80
60313;DHT22;46158;52.850;6.970;2023-05-07T04:20:42;17.20;72.80
60313;DHT22;46158;52.850;6.970;2023-05-07T04:23:08;17.20;72.80
60313;DHT22;46158;52.850;6.970;2023-05-07T04:25:34;17.20;72.80
60313;DHT22;46158;52.850;6.970;2023-05-07T04:28:00;17.20;72.80
60313;DHT22;46158;52.850;6.970;2023-05-07T04:30:26;17.20;72.80
60313;DHT22;46158;52.850;6.970;2023-05-07T04:32:52;17.20;72.90
60313;DHT22;46158;52.850;6.970;2023-05-07T04:35:18;17.20;72.80
60313;DHT22;46158;52.850;6.970;2023-05-07T04:37:44;17.20;72.80
60313;DHT22;46158;52.850;6.970;2023-05-07T04:40:10;17.10;72.80
60313;DHT22;46158;52.850;6.970;2023-05-07T04:42:36;17.10;72.80
60313;DHT22;46158;52.850;6.970;2023-05-07T04:45:02;17.10;72.80
60313;DHT22;46158;52.850;6.970;2023-05-07T04:47:28;17.10;72.70
60313;DHT22;46158;52.850;6.970;2023-05-07T04:49:54;17.10;72.80
60313;DHT22;46158;52.850;6.970;2023-05-07T04:52:19;17.10;72.80
60313;DHT22;46158;52.850;6.970;2023-05-07T04:54:45;17.10;72.80
60313;DHT22;46158;52.850;6.970;2023-05-07T04:57:11;17.10;72.80
60313;DHT22;46158;52.850;6.970;2023-05-07T04:59:37;17.10;72.80
60313;DHT22;46158;52.850;6.970;2023-05-07T05:02:02;17.10;72.70
60313;DHT22;46158;52.850;6.970;2023-05-07T05:04:30;17.00;72.60
60313;DHT22;46158;52.850;6.970;2023-05-07T05:06:55;17.10;72.60
60313;DHT22;46158;52.850;6.970;2023-05-07T05:09:21;17.20;72.40
60313;DHT22;46158;52.850;6.970;2023-05-07T05:11:49;17.40;72.00
60313;DHT22;46158;52.850;6.970;2023-05-07T05:14:15;17.50;71.90
60313;DHT22;46158;52.850;6.970;2023-05-07T05:16:41;17.50;72.00
60313;DHT22;46158;52.850;6.970;2023-05-07T05:19:06;17.50;72.10
60313;DHT22;46158;52.850;6.970;2023-05-07T05:21:32;17.50;72.30
60313;DHT22;46158;52.850;6.970;2023-05-07T05:23:58;17.50;72.50
60313;DHT22;46158;52.850;6.970;2023-05-07T05:26:24;17.50;72.70
60313;DHT22;46158;52.850;6.970;2023-05-07T05:28:49;17.50;72.90
60313;DHT22;46158;52.850;6.970;2023-05-07T05:31:16;17.50;73.00
60313;DHT22;46158;52.850;6.970;2023-05-07T05:33:42;17.50;73.20
60313;DHT22;46158;52.850;6.970;2023-05-07T05:36:09;17.50;73.20
60313;DHT22;46158;52.850;6.970;2023-05-07T05:38:36;17.50;73.30
60313;DHT22;46158;52.850;6.970;2023-05-07T05:41:02;17.60;73.40
60313;DHT22;46158;52.850;6.970;2023-05-07T05:43:27;17.60;73.60
60313;DHT22;46158;52.850;6.970;2023-05-07T05:45:53;17.60;73.60
60313;DHT22;46158;52.850;6.970;2023-05-07T05:48:20;17.60;73.60
60313;DHT22;46158;52.850;6.970;2023-05-07T05:50:46;17.60;73.70
60313;DHT22;46158;52.850;6.970;2023-05-07T05:53:14;17.70;73.90
60313;DHT22;46158;52.850;6.970;2023-05-07T05:55:41;17.70;74.00
60313;DHT22;46158;52.850;6.970;2023-05-07T05:58:07;17.70;74.00
60313;DHT22;46158;52.850;6.970;2023-05-07T06:00:34;17.70;74.00
60313;DHT22;46158;52.850;6.970;2023-05-07T06:02:59;17.70;74.00
60313;DHT22;46158;52.850;6.970;2023-05-07T06:05:25;17.80;74.20
60313;DHT22;46158;52.850;6.970;2023-05-07T06:07:51;17.80;74.20
60313;DHT22;46158;52.850;6.970;2023-05-07T06:10:16;17.80;74.20
60313;DHT22;46158;52.850;6.970;2023-05-07T06:12:42;17.80;74.90
60313;DHT22;46158;52.850;6.970;2023-05-07T06:15:08;17.80;74.30
60313;DHT22;46158;52.850;6.970;2023-05-07T06:17:34;17.90;74.40
60313;DHT22;46158;52.850;6.970;2023-05-07T06:20:00;17.90;74.30
60313;DHT22;46158;52.850;6.970;2023-05-07T06:22:25;17.90;74.10
60313;DHT22;46158;52.850;6.970;2023-05-07T06:24:51;17.90;74.00
60313;DHT22;46158;52.850;6.970;2023-05-07T06:27:17;17.90;73.90
60313;DHT22;46158;52.850;6.970;2023-05-07T06:29:42;17.90;73.70
60313;DHT22;46158;52.850;6.970;2023-05-07T06:32:13;17.90;73.60
60313;DHT22;46158;52.850;6.970;2023-05-07T06:34:39;17.90;73.60
60313;DHT22;46158;52.850;6.970;2023-05-07T06:37:06;17.90;73.70
60313;DHT22;46158;52.850;6.970;2023-05-07T06:39:32;17.90;73.60
60313;DHT22;46158;52.850;6.970;2023-05-07T06:42:00;17.90;73.60
60313;DHT22;46158;52.850;6.970;2023-05-07T06:44:26;17.90;73.50
60313;DHT22;46158;52.850;6.970;2023-05-07T06:46:52;17.90;73.50
60313;DHT22;46158;52.850;6.970;2023-05-07T06:49:18;17.80;73.50
60313;DHT22;46158;52.850;6.970;2023-05-07T06:51:43;17.80;73.50
60313;DHT22;46158;52.850;6.970;2023-05-07T06:54:09;17.90;73.60
60313;DHT22;46158;52.850;6.970;2023-05-07T06:56:35;17.80;73.60
60313;DHT22;46158;52.850;6.970;2023-05-07T06:59:02;17.80;73.60
60313;DHT22;46158;52.850;6.970;2023-05-07T07:01:28;17.80;73.70
60313;DHT22;46158;52.850;6.970;2023-05-07T07:03:54;17.80;73.70
60313;DHT22;46158;52.850;6.970;2023-05-07T07:06:21;17.80;73.80
60313;DHT22;46158;52.850;6.970;2023-05-07T07:08:46;17.80;73.90
60313;DHT22;46158;52.850;6.970;2023-05-07T07:11:12;17.80;74.00
60313;DHT22;46158;52.850;6.970;2023-05-07T07:13:38;17.80;74.10
60313;DHT22;46158;52.850;6.970;2023-05-07T07:16:05;17.80;74.10
60313;DHT22;46158;52.850;6.970;2023-05-07T07:18:31;17.80;74.10
60313;DHT22;46158;52.850;6.970;2023-05-07T07:20:57;17.80;74.20
60313;DHT22;46158;52.850;6.970;2023-05-07T07:23:23;17.80;74.20
60313;DHT22;46158;52.850;6.970;2023-05-07T07:25:48;17.80;74.40
60313;DHT22;46158;52.850;6.970;2023-05-07T07:28:14;17.80;74.40
60313;DHT22;46158;52.850;6.970;2023-05-07T07:30:40;17.80;75.20
60313;DHT22;46158;52.850;6.970;2023-05-07T07:33:05;17.80;74.50
60313;DHT22;46158;52.850;6.970;2023-05-07T07:35:32;17.80;74.50
60313;DHT22;46158;52.850;6.970;2023-05-07T07:37:58;17.80;74.60
60313;DHT22;46158;52.850;6.970;2023-05-07T07:40:24;17.70;74.50
60313;DHT22;46158;52.850;6.970;2023-05-07T07:42:50;17.80;74.60
60313;DHT22;46158;52.850;6.970;2023-05-07T07:45:16;17.80;74.60
60313;DHT22;46158;52.850;6.970;2023-05-07T07:47:42;17.80;74.70
60313;DHT22;46158;52.850;6.970;2023-05-07T07:50:08;17.70;74.80
60313;DHT22;46158;52.850;6.970;2023-05-07T07:52:34;17.80;74.80
60313;DHT22;46158;52.850;6.970;2023-05-07T07:55:00;17.80;74.90
60313;DHT22;46158;52.850;6.970;2023-05-07T07:57:25;17.80;75.00
60313;DHT22;46158;52.850;6.970;2023-05-07T07:59:51;17.80;75.00
60313;DHT22;46158;52.850;6.970;2023-05-07T08:02:17;17.80;75.00
60313;DHT22;46158;52.850;6.970;2023-05-07T08:04:43;17.80;75.10
60313;DHT22;46158;52.850;6.970;2023-05-07T08:07:10;17.80;75.10
60313;DHT22;46158;52.850;6.970;2023-05-07T08:09:37;17.80;75.10
60313;DHT22;46158;52.850;6.970;2023-05-07T08:12:04;17.80;75.20
60313;DHT22;46158;52.850;6.970;2023-05-07T08:14:30;17.80;75.20
60313;DHT22;46158;52.850;6.970;2023-05-07T08:16:56;17.90;75.30
60313;DHT22;46158;52.850;6.970;2023-05-07T08:19:21;17.80;75.50
60313;DHT22;46158;52.850;6.970;2023-05-07T08:21:47;17.90;75.80
60313;DHT22;46158;52.850;6.970;2023-05-07T08:24:15;18.10;75.50
60313;DHT22;46158;52.850;6.970;2023-05-07T08:26:41;18.10;75.00
60313;DHT22;46158;52.850;6.970;2023-05-07T08:29:07;18.10;74.90
60313;DHT22;46158;52.850;6.970;2023-05-07T08:31:33;18.10;74.80
60313;DHT22;46158;52.850;6.970;2023-05-07T08:33:59;18.10;74.80
60313;DHT22;46158;52.850;6.970;2023-05-07T08:36:25;18.10;74.80
60313;DHT22;46158;52.850;6.970;2023-05-07T08:38:51;18.10;74.80
60313;DHT22;46158;52.850;6.970;2023-05-07T08:41:17;18.10;75.00
60313;DHT22;46158;52.850;6.970;2023-05-07T08:43:47;18.00;74.90
60313;DHT22;46158;52.850;6.970;2023-05-07T08:46:25;18.00;74.80
60313;DHT22;46158;52.850;6.970;2023-05-07T08:48:51;18.00;74.80
60313;DHT22;46158;52.850;6.970;2023-05-07T08:51:19;18.00;75.00
60313;DHT22;46158;52.850;6.970;2023-05-07T08:53:46;18.00;75.00
60313;DHT22;46158;52.850;6.970;2023-05-07T08:56:14;18.00;75.10
60313;DHT22;46158;52.850;6.970;2023-05-07T08:58:44;18.00;75.10
60313;DHT22;46158;52.850;6.970;2023-05-07T09:01:13;18.00;75.10
60313;DHT22;46158;52.850;6.970;2023-05-07T09:03:39;18.00;75.10
60313;DHT22;46158;52.850;6.970;2023-05-07T09:06:05;18.00;75.10
60313;DHT22;46158;52.850;6.970;2023-05-07T09:08:33;18.00;75.20
60313;DHT22;46158;52.850;6.970;2023-05-07T09:10:59;18.00;75.30
60313;DHT22;46158;52.850;6.970;2023-05-07T09:13:25;18.00;75.30
60313;DHT22;46158;52.850;6.970;2023-05-07T09:15:52;18.00;75.30
60313;DHT22;46158;52.850;6.970;2023-05-07T09:18:18;18.00;75.40
60313;DHT22;46158;52.850;6.970;2023-05-07T09:20:44;18.00;75.40
60313;DHT22;46158;52.850;6.970;2023-05-07T09:23:12;18.00;75.40
60313;DHT22;46158;52.850;6.970;2023-05-07T09:25:38;18.00;75.40
60313;DHT22;46158;52.850;6.970;2023-05-07T09:28:04;18.00;75.40
60313;DHT22;46158;52.850;6.970;2023-05-07T09:30:33;18.00;75.40
60313;DHT22;46158;52.850;6.970;2023-05-07T09:33:00;18.00;75.40
60313;DHT22;46158;52.850;6.970;2023-05-07T09:35:27;18.00;75.30
60313;DHT22;46158;52.850;6.970;2023-05-07T09:38:00;18.00;75.30
60313;DHT22;46158;52.850;6.970;2023-05-07T09:40:28;18.00;75.30
60313;DHT22;46158;52.850;6.970;2023-05-07T09:42:55;18.00;75.30
60313;DHT22;46158;52.850;6.970;2023-05-07T09:45:28;18.10;75.40
60313;DHT22;46158;52.850;6.970;2023-05-07T09:47:56;18.10;75.40
60313;DHT22;46158;52.850;6.970;2023-05-07T09:50:39;18.10;75.50
60313;DHT22;46158;52.850;6.970;2023-05-07T09:53:10;18.10;75.30
60313;DHT22;46158;52.850;6.970;2023-05-07T09:55:36;18.10;75.40
60313;DHT22;46158;52.850;6.970;2023-05-07T09:58:04;18.10;75.50
60313;DHT22;46158;52.850;6.970;2023-05-07T10:00:32;18.10;75.40
60313;DHT22;46158;52.850;6.970;2023-05-07T10:02:58;18.10;75.50
60313;DHT22;46158;52.850;6.970;2023-05-07T10:05:25;18.10;75.40
60313;DHT22;46158;52.850;6.970;2023-05-07T10:07:52;18.20;75.50
60313;DHT22;46158;52.850;6.970;2023-05-07T10:10:18;18.20;75.40
60313;DHT22;46158;52.850;6.970;2023-05-07T10:12:45;18.10;75.30
60313;DHT22;46158;52.850;6.970;2023-05-07T10:15:11;18.10;75.30
60313;DHT22;46158;52.850;6.970;2023-05-07T10:17:38;18.20;75.20
60313;DHT22;46158;52.850;6.970;2023-05-07T10:20:05;18.20;75.20
60313;DHT22;46158;52.850;6.970;2023-05-07T10:22:43;18.20;75.10
60313;DHT22;46158;52.850;6.970;2023-05-07T10:25:18;18.20;75.80
60313;DHT22;46158;52.850;6.970;2023-05-07T10:27:47;18.20;75.10
60313;DHT22;46158;52.850;6.970;2023-05-07T10:32:55;18.20;75.10
60313;DHT22;46158;52.850;6.970;2023-05-07T10:35:29;18.30;75.10
60313;DHT22;46158;52.850;6.970;2023-05-07T10:37:57;18.20;75.10
60313;DHT22;46158;52.850;6.970;2023-05-07T10:40:22;18.20;75.20
60313;DHT22;46158;52.850;6.970;2023-05-07T10:42:59;18.20;75.10
60313;DHT22;46158;52.850;6.970;2023-05-07T10:45:26;18.20;75.10
60313;DHT22;46158;52.850;6.970;2023-05-07T10:48:12;18.20;75.20
60313;DHT22;46158;52.850;6.970;2023-05-07T10:50:39;18.20;75.00
60313;DHT22;46158;52.850;6.970;2023-05-07T10:55:51;18.30;75.00
60313;DHT22;46158;52.850;6.970;2023-05-07T11:00:55;18.30;75.00
60313;DHT22;46158;52.850;6.970;2023-05-07T11:03:21;18.30;75.00
60313;DHT22;46158;52.850;6.970;2023-05-07T11:05:47;18.30;74.90
60313;DHT22;46158;52.850;6.970;2023-05-07T11:09:02;18.30;74.90
60313;DHT22;46158;52.850;6.970;2023-05-07T11:11:48;18.30;74.80
60313;DHT22;46158;52.850;6.970;2023-05-07T11:17:08;18.30;75.00
60313;DHT22;46158;52.850;6.970;2023-05-07T11:19:53;18.30;75.20
60313;DHT22;46158;52.850;6.970;2023-05-07T11:22:46;18.40;75.20
60313;DHT22;46158;52.850;6.970;2023-05-07T11:25:17;18.40;75.10
60313;DHT22;46158;52.850;6.970;2023-05-07T11:27:47;18.40;75.20
60313;DHT22;46158;52.850;6.970;2023-05-07T11:30:19;18.40;75.10
60313;DHT22;46158;52.850;6.970;2023-05-07T11:32:47;18.40;75.00
60313;DHT22;46158;52.850;6.970;2023-05-07T11:35:15;18.40;75.00
60313;DHT22;46158;52.850;6.970;2023-05-07T11:37:41;18.40;74.90
60313;DHT22;46158;52.850;6.970;2023-05-07T11:40:08;18.40;74.90
60313;DHT22;46158;52.850;6.970;2023-05-07T11:42:39;18.40;74.80
60313;DHT22;46158;52.850;6.970;2023-05-07T11:45:07;18.40;74.70
60313;DHT22;46158;52.850;6.970;2023-05-07T11:47:34;18.40;74.80
60313;DHT22;46158;52.850;6.970;2023-05-07T11:50:07;18.40;74.90
60313;DHT22;46158;52.850;6.970;2023-05-07T11:52:33;18.50;75.00
60313;DHT22;46158;52.850;6.970;2023-05-07T11:55:00;18.60;75.00
60313;DHT22;46158;52.850;6.970;2023-05-07T11:57:27;18.60;75.00
60313;DHT22;46158;52.850;6.970;2023-05-07T11:59:57;18.60;74.90
60313;DHT22;46158;52.850;6.970;2023-05-07T12:02:23;18.60;74.90
60313;DHT22;46158;52.850;6.970;2023-05-07T12:04:50;18.60;74.80
60313;DHT22;46158;52.850;6.970;2023-05-07T12:07:17;18.60;74.70
60313;DHT22;46158;52.850;6.970;2023-05-07T12:09:45;18.60;74.70
60313;DHT22;46158;52.850;6.970;2023-05-07T12:12:11;18.60;74.60
60313;DHT22;46158;52.850;6.970;2023-05-07T12:14:41;18.60;74.60
60313;DHT22;46158;52.850;6.970;2023-05-07T12:17:08;18.60;74.50
60313;DHT22;46158;52.850;6.970;2023-05-07T12:19:35;18.60;74.60
60313;DHT22;46158;52.850;6.970;2023-05-07T12:22:03;18.60;74.60
60313;DHT22;46158;52.850;6.970;2023-05-07T12:24:30;18.60;74.50
60313;DHT22;46158;52.850;6.970;2023-05-07T12:27:06;18.60;75.20
60313;DHT22;46158;52.850;6.970;2023-05-07T12:29:32;18.60;74.60
60313;DHT22;46158;52.850;6.970;2023-05-07T12:31:58;18.60;74.60
60313;DHT22;46158;52.850;6.970;2023-05-07T12:34:24;18.60;74.80
60313;DHT22;46158;52.850;6.970;2023-05-07T12:36:49;18.80;74.90
60313;DHT22;46158;52.850;6.970;2023-05-07T12:39:15;18.80;74.80
60313;DHT22;46158;52.850;6.970;2023-05-07T12:41:58;18.80;74.80
60313;DHT22;46158;52.850;6.970;2023-05-07T12:44:25;18.80;74.70
60313;DHT22;46158;52.850;6.970;2023-05-07T12:46:54;18.80;74.80
60313;DHT22;46158;52.850;6.970;2023-05-07T12:49:20;18.80;74.80
60313;DHT22;46158;52.850;6.970;2023-05-07T12:51:49;18.80;74.70
60313;DHT22;46158;52.850;6.970;2023-05-07T12:54:33;18.80;74.60
60313;DHT22;46158;52.850;6.970;2023-05-07T12:57:09;18.80;74.50
60313;DHT22;46158;52.850;6.970;2023-05-07T12:59:40;18.80;74.60
60313;DHT22;46158;52.850;6.970;2023-05-07T13:02:06;18.80;74.60
60313;DHT22;46158;52.850;6.970;2023-05-07T13:04:32;18.70;74.50
60313;DHT22;46158;52.850;6.970;2023-05-07T13:06:59;18.70;75.20
60313;DHT22;46158;52.850;6.970;2023-05-07T13:09:25;18.70;74.50
60313;DHT22;46158;52.850;6.970;2023-05-07T13:11:51;18.80;74.50
60313;DHT22;46158;52.850;6.970;2023-05-07T13:14:16;18.70;74.50
60313;DHT22;46158;52.850;6.970;2023-05-07T13:16:42;18.70;74.50
60313;DHT22;46158;52.850;6.970;2023-05-07T13:19:08;18.70;75.80
60313;DHT22;46158;52.850;6.970;2023-05-07T13:21:34;18.80;75.50
60313;DHT22;46158;52.850;6.970;2023-05-07T13:24:00;18.80;75.70
60313;DHT22;46158;52.850;6.970;2023-05-07T13:26:26;18.80;75.70
60313;DHT22;46158;52.850;6.970;2023-05-07T13:28:54;18.80;75.50
60313;DHT22;46158;52.850;6.970;2023-05-07T13:31:20;18.80;75.30
60313;DHT22;46158;52.850;6.970;2023-05-07T13:33:46;18.80;75.30
60313;DHT22;46158;52.850;6.970;2023-05-07T13:36:12;18.80;75.00
60313;DHT22;46158;52.850;6.970;2023-05-07T13:38:41;18.80;75.00
60313;DHT22;46158;52.850;6.970;2023-05-07T13:41:07;18.80;74.90
60313;DHT22;46158;52.850;6.970;2023-05-07T13:43:32;18.80;75.00
60313;DHT22;46158;52.850;6.970;2023-05-07T13:45:59;18.80;74.90
60313;DHT22;46158;52.850;6.970;2023-05-07T13:48:25;18.80;74.80
60313;DHT22;46158;52.850;6.970;2023-05-07T13:50:51;18.80;74.80
60313;DHT22;46158;52.850;6.970;2023-05-07T13:53:17;18.80;74.80
60313;DHT22;46158;52.850;6.970;2023-05-07T13:55:44;18.80;74.80
60313;DHT22;46158;52.850;6.970;2023-05-07T13:58:10;18.80;75.30
60313;DHT22;46158;52.850;6.970;2023-05-07T14:00:37;18.90;75.50
60313;DHT22;46158;52.850;6.970;2023-05-07T14:03:04;18.90;75.60
60313;DHT22;46158;52.850;6.970;2023-05-07T14:05:30;18.90;75.60
60313;DHT22;46158;52.850;6.970;2023-05-07T14:07:58;18.90;75.70
60313;DHT22;46158;52.850;6.970;2023-05-07T14:10:25;19.00;75.70
60313;DHT22;46158;52.850;6.970;2023-05-07T14:12:51;18.90;75.40
60313;DHT22;46158;52.850;6.970;2023-05-07T14:15:18;18.90;75.30
60313;DHT22;46158;52.850;6.970;2023-05-07T14:17:44;18.90;75.20
60313;DHT22;46158;52.850;6.970;2023-05-07T14:20:11;18.90;75.20
60313;DHT22;46158;52.850;6.970;2023-05-07T14:22:36;19.00;75.10
60313;DHT22;46158;52.850;6.970;2023-05-07T14:25:02;18.90;75.00
60313;DHT22;46158;52.850;6.970;2023-05-07T14:27:28;18.90;74.90
60313;DHT22;46158;52.850;6.970;2023-05-07T14:29:54;19.00;74.80
60313;DHT22;46158;52.850;6.970;2023-05-07T14:32:20;18.90;74.70
60313;DHT22;46158;52.850;6.970;2023-05-07T14:34:46;19.00;74.70
60313;DHT22;46158;52.850;6.970;2023-05-07T14:37:12;19.00;74.70
60313;DHT22;46158;52.850;6.970;2023-05-07T14:39:38;18.90;74.70
60313;DHT22;46158;52.850;6.970;2023-05-07T14:42:04;18.90;74.70
60313;DHT22;46158;52.850;6.970;2023-05-07T14:44:30;18.90;74.70
60313;DHT22;46158;52.850;6.970;2023-05-07T14:46:56;19.00;75.30
60313;DHT22;46158;52.850;6.970;2023-05-07T14:49:22;19.00;75.50
60313;DHT22;46158;52.850;6.970;2023-05-07T14:51:48;19.10;75.60
60313;DHT22;46158;52.850;6.970;2023-05-07T14:54:14;19.10;75.60
60313;DHT22;46158;52.850;6.970;2023-05-07T14:56:40;19.10;75.60
60313;DHT22;46158;52.850;6.970;2023-05-07T14:59:07;19.10;75.70
60313;DHT22;46158;52.850;6.970;2023-05-07T15:01:36;19.10;75.50
60313;DHT22;46158;52.850;6.970;2023-05-07T15:04:05;19.10;75.30
60313;DHT22;46158;52.850;6.970;2023-05-07T15:06:31;19.10;75.10
60313;DHT22;46158;52.850;6.970;2023-05-07T15:08:57;19.10;75.30
60313;DHT22;46158;52.850;6.970;2023-05-07T15:11:25;19.10;75.00
60313;DHT22;46158;52.850;6.970;2023-05-07T15:13:51;19.10;74.90
60313;DHT22;46158;52.850;6.970;2023-05-07T15:16:17;19.10;74.90
60313;DHT22;46158;52.850;6.970;2023-05-07T15:18:43;19.10;74.90
60313;DHT22;46158;52.850;6.970;2023-05-07T15:21:10;19.10;74.80
60313;DHT22;46158;52.850;6.970;2023-05-07T15:23:35;19.10;74.70
60313;DHT22;46158;52.850;6.970;2023-05-07T15:26:01;19.10;75.50
60313;DHT22;46158;52.850;6.970;2023-05-07T15:28:27;19.10;74.90
60313;DHT22;46158;52.850;6.970;2023-05-07T15:30:55;19.10;74.90
60313;DHT22;46158;52.850;6.970;2023-05-07T15:33:21;19.10;75.20
60313;DHT22;46158;52.850;6.970;2023-05-07T15:35:47;19.20;75.30
60313;DHT22;46158;52.850;6.970;2023-05-07T15:38:13;19.20;75.30
60313;DHT22;46158;52.850;6.970;2023-05-07T15:40:39;19.20;75.40